Time;durP1;ratioP1;P1;durP2;ratioP2;P2;SDS_P1;SDS_P2;PMS_P1;PMS_P2;Temp;Humidity;BMP_temperature;BMP_pressure;BME280_temperature;BME280_humidity;BME280_pressure;Samples;Min_cycle;Max_cycle;Signal;HPM_P1;HPM_P2
2024/03/23 00:02:05;;;;;;;;;;;;;;;9.31;43.26;99742.94;5051615;28;19912;-82
2024/03/23 00:04:31;;;;;;;;;;;;;;;9.26;43.98;99742.59;5033600;28;20031;-83
2024/03/23 00:06:57;;;;;;;;;;;;;;;9.23;43.22;99738.50;5067021;28;19913;-83
2024/03/23 00:09:24;;;;;;;;;;;;;;;9.22;43.07;99747.38;5051765;28;19913;-82
2024/03/23 00:11:49;;;;;;;;;;;;;;;9.20;43.02;99743.28;5067309;28;19913;-82
2024/03/23 00:14:15;;;;;;;;;;;;;;;9.13;42.86;99737.84;5051842;28;19920;-82
2024/03/23 00:16:41;;;;;;;;;;;;;;;9.10;43.60;99740.78;5051772;28;20393;-82
2024/03/23 00:19:07;;;;;;;;;;;;;;;9.10;43.01;99750.50;5051603;28;19991;-83
2024/03/23 00:21:38;;;;;;;;;;;;;;;9.06;43.27;99741.28;5051600;28;19916;-82
2024/03/23 00:24:04;;;;;;;;;;;;;;;9.00;43.84;99742.75;5051630;28;19921;-83
2024/03/23 00:26:31;;;;;;;;;;;;;;;9.00;43.68;99741.94;5051767;28;20400;-83
2024/03/23 00:28:56;;;;;;;;;;;;;;;9.00;44.21;99744.56;5067061;28;19913;-83
2024/03/23 00:31:22;;;;;;;;;;;;;;;9.00;44.04;99736.66;5051989;28;19917;-82
2024/03/23 00:33:48;;;;;;;;;;;;;;;8.97;44.76;99740.44;5067042;28;19917;-83
2024/03/23 00:36:14;;;;;;;;;;;;;;;8.99;43.49;99735.84;5051723;28;20377;-83
2024/03/23 00:38:40;;;;;;;;;;;;;;;8.99;43.65;99743.75;5052069;28;19912;-84
2024/03/23 00:41:05;;;;;;;;;;;;;;;8.92;44.56;99742.75;5054779;28;19913;-83
2024/03/23 00:43:32;;;;;;;;;;;;;;;8.88;44.21;99746.66;5055413;28;19913;-83
2024/03/23 00:45:57;;;;;;;;;;;;;;;8.88;43.70;99742.22;5071134;28;19912;-83
2024/03/23 00:48:23;;;;;;;;;;;;;;;8.80;44.06;99742.22;5055358;28;19913;-83
2024/03/23 00:50:49;;;;;;;;;;;;;;;8.72;45.17;99739.56;5055539;28;19920;-84
2024/03/23 00:53:17;;;;;;;;;;;;;;;8.70;43.70;99740.72;5057170;28;19938;-82
2024/03/23 00:55:43;;;;;;;;;;;;;;;8.64;44.30;99739.53;5059822;28;20344;-82
2024/03/23 00:58:08;;;;;;;;;;;;;;;8.54;45.51;99739.69;5055317;28;19948;-82
2024/03/23 01:00:33;;;;;;;;;;;;;;;8.48;45.51;99740.31;5055024;28;19916;-83
2024/03/23 01:02:59;;;;;;;;;;;;;;;8.50;44.93;99743.63;5054737;28;19921;-83
2024/03/23 01:05:24;;;;;;;;;;;;;;;8.53;45.78;99742.47;5070398;28;19916;-83
2024/03/23 01:07:49;;;;;;;;;;;;;;;8.52;45.41;99744.28;5037242;28;19947;-82
2024/03/23 01:10:15;;;;;;;;;;;;;;;8.50;45.70;99737.53;5037031;28;19935;-83
2024/03/23 01:12:40;;;;;;;;;;;;;;;8.47;45.95;99738.66;5054911;28;19913;-83
2024/03/23 01:15:06;;;;;;;;;;;;;;;8.48;44.98;99734.22;5054800;28;19974;-82
2024/03/23 01:17:31;;;;;;;;;;;;;;;8.45;45.65;99737.19;5054897;28;19920;-81
2024/03/23 01:19:57;;;;;;;;;;;;;;;8.47;44.56;99740.47;5036690;28;19944;-84
2024/03/23 01:22:22;;;;;;;;;;;;;;;8.42;44.96;99740.13;5054862;28;19919;-81
2024/03/23 01:24:47;;;;;;;;;;;;;;;8.33;45.38;99741.91;5054622;28;20317;-82
2024/03/23 01:27:12;;;;;;;;;;;;;;;8.23;44.60;99742.00;5036768;28;19920;-83
2024/03/23 01:29:38;;;;;;;;;;;;;;;8.16;44.39;99745.41;5054684;28;20377;-84
2024/03/23 01:32:04;;;;;;;;;;;;;;;8.11;44.69;99740.59;5054533;28;19920;-80
2024/03/23 01:34:29;;;;;;;;;;;;;;;8.05;44.56;99750.94;5054573;28;19913;-82
2024/03/23 01:36:54;;;;;;;;;;;;;;;7.91;45.13;99744.44;5054507;28;19912;-83
2024/03/23 01:39:19;;;;;;;;;;;;;;;7.84;44.98;99746.06;5036941;28;19923;-83
2024/03/23 01:41:45;;;;;;;;;;;;;;;7.74;45.25;99743.53;5054583;28;19956;-83
2024/03/23 01:44:10;;;;;;;;;;;;;;;7.70;45.42;99742.19;5036463;28;19924;-83
2024/03/23 01:46:36;;;;;;;;;;;;;;;7.62;44.62;99742.97;5036442;28;20385;-82
2024/03/23 01:49:02;;;;;;;;;;;;;;;7.50;45.62;99738.94;5054327;28;19917;-83
2024/03/23 01:51:28;;;;;;;;;;;;;;;7.47;45.31;99738.44;5035847;28;19913;-84
2024/03/23 01:53:54;;;;;;;;;;;;;;;7.38;46.17;99734.88;5036290;28;20037;-83
2024/03/23 01:56:20;;;;;;;;;;;;;;;7.40;46.88;99732.94;5054108;28;20397;-82
2024/03/23 01:58:45;;;;;;;;;;;;;;;7.44;46.36;99741.34;5054067;28;19913;-84
2024/03/23 02:01:10;;;;;;;;;;;;;;;7.42;46.30;99744.09;5036234;28;19936;-84
2024/03/23 02:03:35;;;;;;;;;;;;;;;7.42;46.09;99730.97;5053593;28;19921;-84
2024/03/23 02:06:01;;;;;;;;;;;;;;;7.37;46.50;99741.13;5053931;28;19932;-85
2024/03/23 02:08:26;;;;;;;;;;;;;;;7.30;46.49;99734.81;5053674;28;19919;-85
2024/03/23 02:10:51;;;;;;;;;;;;;;;7.24;46.32;99735.44;5054056;28;19921;-85
2024/03/23 02:13:18;;;;;;;;;;;;;;;7.23;46.29;99737.22;5059727;28;20399;-82
2024/03/23 02:15:44;;;;;;;;;;;;;;;7.24;45.78;99736.25;5055950;28;19923;-84
2024/03/23 02:18:10;;;;;;;;;;;;;;;7.24;45.93;99743.31;5053945;28;19920;-83
2024/03/23 02:20:35;;;;;;;;;;;;;;;7.19;45.96;99737.69;5035669;28;19913;-82
2024/03/23 02:23:01;;;;;;;;;;;;;;;7.14;45.52;99748.66;5053669;28;19920;-83
2024/03/23 02:25:26;;;;;;;;;;;;;;;7.06;46.33;99747.75;5035308;28;20332;-84
2024/03/23 02:27:53;;;;;;;;;;;;;;;6.99;46.94;99748.34;5053431;28;19920;-82
2024/03/23 02:30:19;;;;;;;;;;;;;;;6.89;46.11;99757.28;5053458;28;19913;-82
2024/03/23 02:32:44;;;;;;;;;;;;;;;6.75;46.58;99753.34;5053741;28;19913;-85
2024/03/23 02:35:09;;;;;;;;;;;;;;;6.79;46.29;99746.84;5053578;28;20306;-84
2024/03/23 02:37:34;;;;;;;;;;;;;;;6.78;45.92;99741.75;5035268;28;19920;-84
2024/03/23 02:40:00;;;;;;;;;;;;;;;6.76;46.48;99749.75;5053254;28;20270;-85
2024/03/23 02:42:25;;;;;;;;;;;;;;;6.72;46.33;99751.03;5053131;28;19913;-84
2024/03/23 02:44:50;;;;;;;;;;;;;;;6.66;46.01;99756.84;5053071;28;20003;-85
2024/03/23 02:47:16;;;;;;;;;;;;;;;6.65;46.71;99756.03;5053214;28;19916;-84
2024/03/23 02:49:41;;;;;;;;;;;;;;;6.60;46.21;99754.81;5035403;28;19959;-85
2024/03/23 02:52:06;;;;;;;;;;;;;;;6.60;46.42;99746.94;5053123;28;19912;-85
2024/03/23 02:54:31;;;;;;;;;;;;;;;6.58;45.72;99751.50;5053997;28;20369;-85
2024/03/23 02:56:57;;;;;;;;;;;;;;;6.48;47.21;99748.13;5053118;28;19913;-82
2024/03/23 02:59:22;;;;;;;;;;;;;;;6.48;46.26;99746.31;5052783;28;19966;-83
2024/03/23 03:01:47;;;;;;;;;;;;;;;6.50;46.39;99749.63;5034790;28;20396;-82
2024/03/23 03:04:12;;;;;;;;;;;;;;;6.46;46.00;99745.63;5033742;28;19921;-82
2024/03/23 03:06:38;;;;;;;;;;;;;;;6.44;46.53;99750.22;5052494;28;20026;-82
2024/03/23 03:09:03;;;;;;;;;;;;;;;6.37;46.59;99749.13;5034765;28;19916;-83
2024/03/23 03:11:28;;;;;;;;;;;;;;;6.33;45.99;99745.97;5034709;28;20363;-82
2024/03/23 03:13:53;;;;;;;;;;;;;;;6.30;46.87;99751.53;5052516;28;19908;-82
2024/03/23 03:16:19;;;;;;;;;;;;;;;6.28;47.22;99745.59;5052192;28;19912;-82
2024/03/23 03:18:46;;;;;;;;;;;;;;;6.33;46.84;99753.03;5052261;28;20344;-82
2024/03/23 03:21:11;;;;;;;;;;;;;;;6.32;46.24;99756.63;5052353;28;19919;-83
2024/03/23 03:23:37;;;;;;;;;;;;;;;6.29;46.99;99749.88;5052203;28;19996;-82
2024/03/23 03:26:02;;;;;;;;;;;;;;;6.27;46.42;99746.56;5034183;28;19920;-83
2024/03/23 03:28:30;;;;;;;;;;;;;;;6.20;47.20;99745.50;5052654;28;19912;-83
2024/03/23 03:30:55;;;;;;;;;;;;;;;6.15;47.25;99739.88;5061236;28;19913;-83
2024/03/23 03:33:21;;;;;;;;;;;;;;;6.10;47.09;99734.22;5071443;28;20007;-82
2024/03/23 03:35:46;;;;;;;;;;;;;;;6.10;47.03;99746.50;5052062;28;19912;-82
2024/03/23 03:38:12;;;;;;;;;;;;;;;6.03;47.28;99751.50;5034232;28;19916;-82
2024/03/23 03:40:37;;;;;;;;;;;;;;;6.03;46.55;99744.47;5052066;28;20377;-82
2024/03/23 03:43:02;;;;;;;;;;;;;;;6.08;47.18;99745.81;5052110;28;19978;-82
2024/03/23 03:45:28;;;;;;;;;;;;;;;6.03;46.95;99751.50;5034055;28;19920;-82
2024/03/23 03:47:53;;;;;;;;;;;;;;;6.04;47.30;99746.13;5052025;28;19913;-82
2024/03/23 03:50:18;;;;;;;;;;;;;;;6.09;47.26;99747.47;5052010;28;20440;-82
2024/03/23 03:52:43;;;;;;;;;;;;;;;6.03;47.65;99743.63;5033994;28;19913;-82
2024/03/23 03:55:12;;;;;;;;;;;;;;;6.01;47.00;99745.59;5033880;28;19952;-82
2024/03/23 03:57:37;;;;;;;;;;;;;;;5.97;48.14;99747.66;5034308;28;19979;-82
2024/03/23 04:00:04;;;;;;;;;;;;;;;5.96;46.95;99755.66;5051819;28;20393;-82
2024/03/23 04:02:29;;;;;;;;;;;;;;;5.89;47.42;99749.28;5033965;28;20320;-82
2024/03/23 04:04:54;;;;;;;;;;;;;;;5.88;46.83;99755.50;5033711;28;19921;-82
2024/03/23 04:07:22;;;;;;;;;;;;;;;5.87;48.15;99756.47;5051526;28;19966;-82
2024/03/23 04:09:47;;;;;;;;;;;;;;;5.90;47.53;99749.19;5033669;28;20389;-82
2024/03/23 04:12:13;;;;;;;;;;;;;;;5.96;46.51;99759.13;5033905;28;19920;-82
2024/03/23 04:14:38;;;;;;;;;;;;;;;5.94;47.56;99757.56;5051325;28;20298;-82
2024/03/23 04:17:03;;;;;;;;;;;;;;;5.97;47.47;99750.28;5051759;28;19935;-82
2024/03/23 04:19:29;;;;;;;;;;;;;;;5.95;47.72;99762.72;5033892;28;19913;-82
2024/03/23 04:21:54;;;;;;;;;;;;;;;5.96;47.28;99759.13;5051662;28;20294;-83
2024/03/23 04:24:20;;;;;;;;;;;;;;;5.95;47.19;99761.88;5051591;28;20059;-82
2024/03/23 04:26:46;;;;;;;;;;;;;;;5.93;47.34;99766.41;5033958;28;20396;-82
2024/03/23 04:29:12;;;;;;;;;;;;;;;5.91;47.18;99771.78;5051511;28;19920;-82
2024/03/23 04:31:37;;;;;;;;;;;;;;;5.91;47.36;99765.72;5033472;28;19912;-82
2024/03/23 04:34:03;;;;;;;;;;;;;;;5.91;47.25;99770.97;5051549;28;19913;-82
2024/03/23 04:36:28;;;;;;;;;;;;;;;5.92;46.88;99772.63;5033864;28;19920;-82
2024/03/23 04:38:54;;;;;;;;;;;;;;;5.87;47.36;99773.00;5051645;28;19999;-82
2024/03/23 04:41:19;;;;;;;;;;;;;;;5.85;47.47;99776.75;5051611;28;19959;-82
2024/03/23 04:43:44;;;;;;;;;;;;;;;5.82;47.12;99779.66;5051683;28;19966;-82
2024/03/23 04:46:10;;;;;;;;;;;;;;;5.78;47.60;99776.47;5051369;28;19913;-82
2024/03/23 04:48:36;;;;;;;;;;;;;;;5.78;47.73;99779.09;5051819;28;19939;-82
2024/03/23 04:51:01;;;;;;;;;;;;;;;5.72;47.93;99779.66;5056502;28;19940;-84
2024/03/23 04:53:29;;;;;;;;;;;;;;;5.75;47.01;99782.00;5041757;28;19912;-82
2024/03/23 04:55:55;;;;;;;;;;;;;;;5.78;48.07;99786.13;5033736;28;20317;-82
2024/03/23 04:58:21;;;;;;;;;;;;;;;5.80;47.84;99786.81;5033622;28;19908;-82
2024/03/23 05:00:46;;;;;;;;;;;;;;;5.81;48.03;99785.84;5051168;28;20396;-82
2024/03/23 05:03:11;;;;;;;;;;;;;;;5.87;47.22;99786.13;5051117;28;19931;-82
2024/03/23 05:05:37;;;;;;;;;;;;;;;5.90;47.01;99790.28;5051168;28;20446;-82
2024/03/23 05:08:02;;;;;;;;;;;;;;;5.84;48.51;99785.56;5033281;28;19916;-83
2024/03/23 05:10:27;;;;;;;;;;;;;;;5.84;48.25;99781.16;5051510;28;19913;-82
2024/03/23 05:12:53;;;;;;;;;;;;;;;5.83;47.82;99783.91;5051156;28;20373;-82
2024/03/23 05:15:18;;;;;;;;;;;;;;;5.85;47.85;99785.44;5051217;28;19920;-82
2024/03/23 05:17:43;;;;;;;;;;;;;;;5.95;47.33;99783.66;5033232;28;19913;-82
2024/03/23 05:20:09;;;;;;;;;;;;;;;5.99;47.97;99786.84;5051172;28;19908;-82
2024/03/23 05:22:35;;;;;;;;;;;;;;;5.93;47.85;99784.75;5051560;28;19913;-82
2024/03/23 05:25:01;;;;;;;;;;;;;;;5.95;48.15;99790.72;5050948;28;20016;-82
2024/03/23 05:27:26;;;;;;;;;;;;;;;5.99;47.50;99786.84;5052790;28;20003;-82
2024/03/23 05:29:51;;;;;;;;;;;;;;;6.00;47.07;99781.44;5069953;28;19956;-82
2024/03/23 05:32:17;;;;;;;;;;;;;;;6.00;47.16;99791.94;5036621;28;20377;-82
2024/03/23 05:34:42;;;;;;;;;;;;;;;6.02;48.00;99782.13;5054396;28;20306;-82
2024/03/23 05:37:07;;;;;;;;;;;;;;;6.02;48.32;99778.69;5070160;28;20419;-82
2024/03/23 05:39:33;;;;;;;;;;;;;;;6.13;47.65;99786.38;5054165;28;20385;-82
2024/03/23 05:41:58;;;;;;;;;;;;;;;6.17;47.96;99779.88;5054112;28;19970;-82
2024/03/23 05:44:23;;;;;;;;;;;;;;;6.24;47.80;99785.38;5036404;28;20007;-82
2024/03/23 05:46:48;;;;;;;;;;;;;;;6.32;47.63;99794.16;5054242;28;19919;-82
2024/03/23 05:49:14;;;;;;;;;;;;;;;6.48;47.48;99790.09;5036437;28;19915;-82
2024/03/23 05:51:39;;;;;;;;;;;;;;;6.57;47.33;99791.81;5053975;28;20300;-82
2024/03/23 05:54:04;;;;;;;;;;;;;;;6.70;46.82;99789.72;5036230;28;19967;-83
2024/03/23 05:56:30;;;;;;;;;;;;;;;6.78;47.90;99787.19;5036150;28;20429;-84
2024/03/23 05:58:55;;;;;;;;;;;;;;;6.86;47.30;99786.44;5054146;28;19913;-82
2024/03/23 06:01:20;;;;;;;;;;;;;;;6.92;47.15;99791.09;5053819;28;19913;-84
2024/03/23 06:03:46;;;;;;;;;;;;;;;6.98;47.70;99796.56;5035889;28;20008;-83
2024/03/23 06:06:12;;;;;;;;;;;;;;;7.04;47.89;99800.41;5036037;28;19916;-85
2024/03/23 06:08:38;;;;;;;;;;;;;;;7.07;47.90;99794.03;5035955;28;20294;-85
2024/03/23 06:11:04;;;;;;;;;;;;;;;7.19;47.13;99790.19;5047510;28;19935;-83
2024/03/23 06:13:30;;;;;;;;;;;;;;;7.24;47.91;99788.78;5035895;28;19920;-84
2024/03/23 06:15:56;;;;;;;;;;;;;;;7.30;47.69;99792.59;5053831;28;20305;-83
2024/03/23 06:18:21;;;;;;;;;;;;;;;7.36;46.83;99785.91;5053791;28;19913;-82
2024/03/23 06:20:46;;;;;;;;;;;;;;;7.47;47.01;99793.59;5053566;28;20446;-82
2024/03/23 06:23:12;;;;;;;;;;;;;;;7.55;47.84;99791.03;5035728;28;19913;-83
2024/03/23 06:25:38;;;;;;;;;;;;;;;7.63;47.95;99791.91;5035716;28;19913;-82
2024/03/23 06:28:04;;;;;;;;;;;;;;;7.73;47.97;99793.63;5053682;28;20004;-83
2024/03/23 06:30:29;;;;;;;;;;;;;;;7.79;47.97;99785.94;5036054;28;19912;-84
2024/03/23 06:32:55;;;;;;;;;;;;;;;7.94;47.70;99788.84;5053541;28;19913;-83
2024/03/23 06:35:20;;;;;;;;;;;;;;;8.07;47.43;99789.25;5053392;28;19931;-82
2024/03/23 06:37:45;;;;;;;;;;;;;;;8.17;47.13;99792.56;5035551;28;19920;-82
2024/03/23 06:40:11;;;;;;;;;;;;;;;8.31;46.96;99795.63;5053446;28;19916;-82
2024/03/23 06:42:36;;;;;;;;;;;;;;;8.40;46.73;99789.47;5053174;28;19936;-83
2024/03/23 06:45:03;;;;;;;;;;;;;;;8.52;46.92;99789.00;5053176;28;19923;-83
2024/03/23 06:47:28;;;;;;;;;;;;;;;8.63;47.64;99787.06;5053432;28;19974;-82
2024/03/23 06:49:53;;;;;;;;;;;;;;;8.65;46.83;99780.66;5053376;28;19916;-83
2024/03/23 06:52:19;;;;;;;;;;;;;;;8.74;46.17;99792.88;5053253;28;20369;-83
2024/03/23 06:54:44;;;;;;;;;;;;;;;8.82;46.67;99779.72;5053194;28;19913;-84
2024/03/23 06:57:11;;;;;;;;;;;;;;;8.94;46.00;99782.09;5053183;28;20369;-82
2024/03/23 06:59:36;;;;;;;;;;;;;;;8.97;47.07;99787.03;5053092;28;20017;-83
2024/03/23 07:02:01;;;;;;;;;;;;;;;8.99;46.70;99783.25;5053062;28;19916;-83
2024/03/23 07:04:26;;;;;;;;;;;;;;;9.05;46.53;99785.22;5035000;28;19943;-83
2024/03/23 07:06:52;;;;;;;;;;;;;;;9.14;46.11;99780.81;5052878;28;19991;-81
2024/03/23 07:09:17;;;;;;;;;;;;;;;9.24;45.78;99777.03;5035054;28;20321;-82
2024/03/23 07:11:43;;;;;;;;;;;;;;;9.31;45.96;99784.28;5052724;28;19919;-83
2024/03/23 07:14:08;;;;;;;;;;;;;;;9.38;45.60;99777.34;5034958;28;20297;-82
2024/03/23 07:16:33;;;;;;;;;;;;;;;9.47;45.42;99776.38;5053223;28;19920;-83
2024/03/23 07:18:59;;;;;;;;;;;;;;;9.57;45.47;99777.84;5052965;28;20440;-82
2024/03/23 07:21:24;;;;;;;;;;;;;;;9.68;45.00;99773.25;5052889;28;19931;-83
2024/03/23 07:23:49;;;;;;;;;;;;;;;9.79;45.20;99768.47;5068146;28;19909;-83
2024/03/23 07:26:14;;;;;;;;;;;;;;;9.90;44.84;99769.91;5052755;28;20377;-84
2024/03/23 07:28:43;;;;;;;;;;;;;;;9.97;44.93;99768.25;5054125;28;19913;-82
2024/03/23 07:31:12;;;;;;;;;;;;;;;10.06;44.64;99767.25;5057082;28;20297;-83
2024/03/23 07:33:41;;;;;;;;;;;;;;;10.18;44.08;99763.25;5052460;28;19916;-83
2024/03/23 07:36:07;;;;;;;;;;;;;;;10.31;44.52;99759.28;5052318;28;19913;-83
2024/03/23 07:38:32;;;;;;;;;;;;;;;10.38;44.22;99757.59;5034418;28;20281;-82
2024/03/23 07:41:04;;;;;;;;;;;;;;;10.42;44.21;99753.66;5034782;28;19920;-83
2024/03/23 07:43:30;;;;;;;;;;;;;;;10.46;44.12;99754.94;5052513;28;19936;-83
2024/03/23 07:45:55;;;;;;;;;;;;;;;10.52;44.00;99748.16;5051846;28;20373;-81
2024/03/23 07:48:24;;;;;;;;;;;;;;;10.62;43.47;99746.94;5034118;28;19956;-81
2024/03/23 07:51:15;;;;;;;;;;;;;;;10.70;43.15;99746.91;5051878;28;19913;-83
2024/03/23 07:53:42;;;;;;;;;;;;;;;10.80;43.34;99750.16;5064384;28;19916;-83
2024/03/23 07:56:09;;;;;;;;;;;;;;;10.95;43.31;99747.56;5067345;28;20054;-83
2024/03/23 07:58:35;;;;;;;;;;;;;;;11.04;43.52;99743.06;5051972;28;20447;-82
2024/03/23 08:01:04;;;;;;;;;;;;;;;11.17;43.01;99747.78;5052040;28;19917;-82
2024/03/23 08:03:29;;;;;;;;;;;;;;;11.23;42.47;99742.59;5051921;28;19971;-82
2024/03/23 08:05:54;;;;;;;;;;;;;;;11.27;43.06;99737.78;5051774;28;19956;-82
2024/03/23 08:08:19;;;;;;;;;;;;;;;11.34;43.11;99744.84;5034130;28;19913;-82
2024/03/23 08:10:51;;;;;;;;;;;;;;;11.39;42.66;99736.38;5051699;28;19913;-82
2024/03/23 08:13:16;;;;;;;;;;;;;;;11.43;42.64;99746.41;5051816;28;19913;-82
2024/03/23 08:15:41;;;;;;;;;;;;;;;11.56;42.13;99740.50;5051780;28;20439;-82
2024/03/23 08:18:07;;;;;;;;;;;;;;;11.62;41.97;99745.06;5051907;28;20446;-82
2024/03/23 08:20:32;;;;;;;;;;;;;;;11.76;42.19;99739.00;5051795;28;19913;-82
2024/03/23 08:22:57;;;;;;;;;;;;;;;11.95;41.60;99742.16;5051657;28;19913;-82
2024/03/23 08:25:23;;;;;;;;;;;;;;;11.99;42.06;99738.16;5052084;28;19923;-82
2024/03/23 08:27:48;;;;;;;;;;;;;;;12.11;41.76;99735.88;5052124;28;19913;-82
2024/03/23 08:30:13;;;;;;;;;;;;;;;12.24;41.48;99733.41;5033874;28;19919;-82
2024/03/23 08:32:38;;;;;;;;;;;;;;;12.38;41.30;99725.44;5067156;28;19920;-82
2024/03/23 08:35:04;;;;;;;;;;;;;;;12.45;40.69;99728.16;5052209;28;19913;-82
2024/03/23 08:37:29;;;;;;;;;;;;;;;12.52;40.52;99728.22;5051634;28;20336;-82
2024/03/23 08:39:54;;;;;;;;;;;;;;;12.57;40.59;99723.19;5051678;28;19909;-82
2024/03/23 08:42:20;;;;;;;;;;;;;;;12.71;40.46;99720.53;5033755;28;20381;-82
2024/03/23 08:44:49;;;;;;;;;;;;;;;12.86;39.85;99711.72;5051670;28;19943;-82
2024/03/23 08:47:14;;;;;;;;;;;;;;;12.95;40.32;99715.88;5035039;28;19916;-81
2024/03/23 08:49:39;;;;;;;;;;;;;;;13.12;40.40;99714.63;5058685;28;19912;-81
2024/03/23 08:52:05;;;;;;;;;;;;;;;13.26;40.08;99712.94;5033974;28;20016;-81
2024/03/23 08:54:31;;;;;;;;;;;;;;;13.36;39.75;99702.81;5051502;28;19913;-81
2024/03/23 08:56:56;;;;;;;;;;;;;;;13.52;39.40;99701.75;5033533;28;19912;-82
2024/03/23 08:59:23;;;;;;;;;;;;;;;13.68;39.91;99698.78;5051593;28;19924;-81
2024/03/23 09:01:48;;;;;;;;;;;;;;;13.90;38.80;99692.41;5067485;28;19974;-81
2024/03/23 09:04:14;;;;;;;;;;;;;;;14.10;38.55;99686.38;5033896;28;19921;-81
2024/03/23 09:06:39;;;;;;;;;;;;;;;14.35;38.53;99689.38;5034039;28;19920;-81
2024/03/23 09:09:04;;;;;;;;;;;;;;;14.33;37.96;99673.63;5035322;28;19913;-81
2024/03/23 09:11:30;;;;;;;;;;;;;;;14.47;37.40;99683.31;5034263;28;20374;-81
2024/03/23 09:13:55;;;;;;;;;;;;;;;14.58;37.47;99674.75;5035499;28;19913;-81
2024/03/23 09:16:20;;;;;;;;;;;;;;;14.74;37.28;99672.75;5035279;28;19948;-81
2024/03/23 09:18:45;;;;;;;;;;;;;;;14.91;37.50;99660.72;5033940;28;19983;-81
2024/03/23 09:21:12;;;;;;;;;;;;;;;15.12;37.11;99663.19;5034862;28;19913;-81
2024/03/23 09:23:37;;;;;;;;;;;;;;;15.32;36.90;99662.38;5035114;28;20389;-81
2024/03/23 09:26:03;;;;;;;;;;;;;;;15.49;37.01;99660.94;5034982;28;19921;-81
2024/03/23 09:28:28;;;;;;;;;;;;;;;15.70;36.71;99657.25;5033569;28;20345;-81
2024/03/23 09:30:53;;;;;;;;;;;;;;;15.86;36.27;99654.97;5034921;28;19920;-81
2024/03/23 09:33:19;;;;;;;;;;;;;;;16.11;36.08;99643.59;5034934;28;19917;-80
2024/03/23 09:35:44;;;;;;;;;;;;;;;16.33;35.74;99636.94;5034782;28;19913;-81
2024/03/23 09:38:10;;;;;;;;;;;;;;;16.55;35.30;99634.81;5033672;28;20325;-81
2024/03/23 09:40:40;;;;;;;;;;;;;;;16.80;36.05;99632.19;5034946;28;20455;-80
2024/03/23 09:43:06;;;;;;;;;;;;;;;17.01;34.95;99628.34;5034725;28;20445;-81
2024/03/23 09:45:33;;;;;;;;;;;;;;;17.07;35.10;99628.28;5034689;28;20302;-80
2024/03/23 09:47:59;;;;;;;;;;;;;;;17.21;34.70;99623.69;5034671;28;20006;-80
2024/03/23 09:50:24;;;;;;;;;;;;;;;17.18;34.51;99624.13;5034818;28;20364;-80
2024/03/23 09:52:50;;;;;;;;;;;;;;;17.30;33.04;99610.88;5034655;28;20394;-79
2024/03/23 09:55:15;;;;;;;;;;;;;;;17.45;33.86;99611.34;5031738;28;20013;-79
2024/03/23 09:57:40;;;;;;;;;;;;;;;17.69;32.81;99609.69;5034442;28;19939;-80
2024/03/23 10:00:07;;;;;;;;;;;;;;;17.77;31.92;99602.19;5034285;28;19952;-80
2024/03/23 10:02:33;;;;;;;;;;;;;;;17.93;31.83;99597.31;5032925;28;19925;-80
2024/03/23 10:04:58;;;;;;;;;;;;;;;18.06;33.18;99597.97;5034449;28;19923;-80
2024/03/23 10:07:23;;;;;;;;;;;;;;;18.20;33.20;99595.13;5034662;28;19952;-81
2024/03/23 10:09:51;;;;;;;;;;;;;;;18.34;32.84;99594.72;5036919;28;20054;-79
2024/03/23 10:12:17;;;;;;;;;;;;;;;18.53;32.10;99583.94;5032612;28;19920;-80
2024/03/23 10:14:42;;;;;;;;;;;;;;;18.74;32.02;99570.09;5032472;28;19917;-80
2024/03/23 10:17:17;;;;;;;;;;;;;;;18.92;28.40;99577.22;5034197;28;19921;-80
2024/03/23 10:19:42;;;;;;;;;;;;;;;18.99;32.49;99569.88;5034177;28;19913;-80
2024/03/23 10:22:13;;;;;;;;;;;;;;;19.10;31.43;99560.25;5033770;28;19920;-80
2024/03/23 10:24:38;;;;;;;;;;;;;;;19.26;28.55;99562.22;5032724;28;19924;-80
2024/03/23 10:27:03;;;;;;;;;;;;;;;19.42;27.74;99558.84;5033925;28;19913;-79
2024/03/23 10:29:29;;;;;;;;;;;;;;;19.49;29.04;99553.38;5033616;28;20012;-79
2024/03/23 10:32:07;;;;;;;;;;;;;;;19.64;30.34;99549.16;5033692;28;19916;-80
2024/03/23 10:34:32;;;;;;;;;;;;;;;19.89;26.08;99537.31;5033631;28;19913;-80
2024/03/23 10:36:58;;;;;;;;;;;;;;;20.00;26.99;99531.91;5032198;28;20419;-79
2024/03/23 10:39:24;;;;;;;;;;;;;;;20.04;24.99;99528.75;5033788;28;19913;-79
2024/03/23 10:41:53;;;;;;;;;;;;;;;20.08;26.21;99525.38;5032234;28;19966;-79
2024/03/23 10:44:19;;;;;;;;;;;;;;;20.24;26.69;99526.47;5033734;28;19923;-80
2024/03/23 10:46:44;;;;;;;;;;;;;;;20.35;27.47;99522.91;5032609;28;19920;-80
2024/03/23 10:49:10;;;;;;;;;;;;;;;20.48;26.63;99506.53;5032434;28;20344;-80
2024/03/23 10:51:35;;;;;;;;;;;;;;;20.72;24.54;99507.19;5031874;28;20309;-80
2024/03/23 10:54:04;;;;;;;;;;;;;;;20.91;24.70;99507.75;5033220;28;19974;-78
2024/03/23 10:56:33;;;;;;;;;;;;;;;21.15;28.36;99506.50;5033073;28;19920;-80
2024/03/23 10:59:00;;;;;;;;;;;;;;;21.31;27.31;99498.66;5033532;28;19970;-80
2024/03/23 11:01:25;;;;;;;;;;;;;;;21.42;28.81;99495.88;5033278;28;20039;-80
2024/03/23 11:03:51;;;;;;;;;;;;;;;21.35;27.64;99492.56;5031784;28;20008;-80
2024/03/23 11:06:35;;;;;;;;;;;;;;;21.30;27.16;99491.69;5033252;28;19917;-79
2024/03/23 11:09:00;;;;;;;;;;;;;;;21.37;27.67;99482.38;5032930;28;19967;-79
2024/03/23 11:11:26;;;;;;;;;;;;;;;21.47;26.03;99477.13;5033216;28;20290;-78
2024/03/23 11:13:53;;;;;;;;;;;;;;;21.64;26.87;99478.94;5033071;28;19914;-78
2024/03/23 11:16:29;;;;;;;;;;;;;;;21.63;24.66;99469.25;5033103;28;19913;-78
2024/03/23 11:19:14;;;;;;;;;;;;;;;21.81;24.31;99469.72;5031621;28;19952;-80
2024/03/23 11:21:51;;;;;;;;;;;;;;;22.03;22.15;99458.16;5032941;28;19920;-79
2024/03/23 11:24:17;;;;;;;;;;;;;;;22.10;25.37;99454.19;5032089;28;20382;-79
2024/03/23 11:26:42;;;;;;;;;;;;;;;22.25;24.60;99455.38;5032553;28;19996;-80
2024/03/23 11:29:10;;;;;;;;;;;;;;;22.39;22.92;99456.59;5033417;28;19919;-79
2024/03/23 11:31:36;;;;;;;;;;;;;;;22.33;22.73;99444.19;5036948;28;19916;-79
2024/03/23 11:34:05;;;;;;;;;;;;;;;22.23;23.73;99441.38;5031454;28;19983;-79
2024/03/23 11:36:30;;;;;;;;;;;;;;;22.34;25.84;99443.09;5032835;28;19920;-79
2024/03/23 11:38:55;;;;;;;;;;;;;;;22.46;23.52;99435.66;5032656;28;19913;-80
2024/03/23 11:41:21;;;;;;;;;;;;;;;22.42;26.55;99435.38;5032478;28;19913;-80
2024/03/23 11:43:46;;;;;;;;;;;;;;;22.31;24.59;99427.47;5030968;28;19996;-80
2024/03/23 11:46:11;;;;;;;;;;;;;;;22.34;23.63;99421.59;5032590;28;19917;-81
2024/03/23 11:48:36;;;;;;;;;;;;;;;22.15;25.44;99424.66;5031229;28;19917;-80
2024/03/23 11:51:02;;;;;;;;;;;;;;;22.12;23.63;99411.72;5032313;28;19964;-80
2024/03/23 11:53:28;;;;;;;;;;;;;;;22.22;25.06;99413.66;5032125;28;19931;-80
2024/03/23 11:55:57;;;;;;;;;;;;;;;22.32;24.66;99410.28;5032435;28;19992;-80
2024/03/23 11:58:23;;;;;;;;;;;;;;;21.90;24.07;99400.19;5032406;28;20009;-81
2024/03/23 12:00:59;;;;;;;;;;;;;;;21.70;22.18;99398.13;5030913;28;20305;-80
2024/03/23 12:03:31;;;;;;;;;;;;;;;21.83;23.75;99396.91;5031069;28;20372;-80
2024/03/23 12:06:01;;;;;;;;;;;;;;;21.88;23.36;99396.97;5032138;28;20424;-80
2024/03/23 12:08:30;;;;;;;;;;;;;;;21.85;23.56;99392.09;5032274;28;19913;-80
2024/03/23 12:11:07;;;;;;;;;;;;;;;21.83;23.00;99384.28;5032236;28;20333;-80
2024/03/23 12:13:33;;;;;;;;;;;;;;;21.75;23.21;99390.13;5030885;28;19967;-80
2024/03/23 12:16:19;;;;;;;;;;;;;;;21.61;23.53;99375.47;5032349;28;19921;-80
2024/03/23 12:18:46;;;;;;;;;;;;;;;21.34;24.27;99370.06;5030458;28;20294;-81
2024/03/23 12:21:11;;;;;;;;;;;;;;;21.15;24.58;99371.44;5032075;28;19913;-80
2024/03/23 12:23:39;;;;;;;;;;;;;;;20.93;22.67;99363.41;5030712;28;20321;-80
2024/03/23 12:26:04;;;;;;;;;;;;;;;20.77;23.61;99359.69;5032111;28;20008;-80
2024/03/23 12:28:29;;;;;;;;;;;;;;;20.55;21.80;99353.47;5032243;28;20444;-80
2024/03/23 12:30:55;;;;;;;;;;;;;;;20.37;24.34;99353.72;5030899;28;19913;-80
2024/03/23 12:33:21;;;;;;;;;;;;;;;20.31;24.08;99339.44;5031921;28;19913;-80
2024/03/23 12:35:46;;;;;;;;;;;;;;;20.20;26.34;99340.34;5032731;28;20325;-80
2024/03/23 12:38:11;;;;;;;;;;;;;;;20.06;25.69;99339.03;5036002;28;19982;-81
2024/03/23 12:40:37;;;;;;;;;;;;;;;19.85;23.92;99329.88;5035935;28;20377;-80
2024/03/23 12:43:02;;;;;;;;;;;;;;;19.82;24.75;99330.34;5036402;28;19917;-80
2024/03/23 12:45:27;;;;;;;;;;;;;;;19.76;24.08;99326.78;5034634;28;19917;-79
2024/03/23 12:47:53;;;;;;;;;;;;;;;19.73;24.50;99327.25;5036184;28;19919;-79